sensor_id;sensor_type;location;lat;lon;timestamp;temperature;humidity
29501;DHT22;16450;50.288;10.966;2023-03-04T00:02:24;-2.00;92.40
29501;DHT22;16450;50.288;10.966;2023-03-04T00:05:26;-2.10;92.50
29501;DHT22;16450;50.288;10.966;2023-03-04T00:08:28;-2.10;92.50
29501;DHT22;16450;50.288;10.966;2023-03-04T00:11:33;-2.20;92.50
29501;DHT22;16450;50.288;10.966;2023-03-04T00:14:34;-2.20;92.80
29501;DHT22;16450;50.288;10.966;2023-03-04T00:17:36;-2.30;92.40
29501;DHT22;16450;50.288;10.966;2023-03-04T00:20:38;-2.30;92.40
29501;DHT22;16450;50.288;10.966;2023-03-04T00:23:40;-2.40;92.40
29501;DHT22;16450;50.288;10.966;2023-03-04T00:26:42;-2.40;92.40
29501;DHT22;16450;50.288;10.966;2023-03-04T00:29:44;-2.40;92.40
29501;DHT22;16450;50.288;10.966;2023-03-04T00:32:47;-2.50;92.30
29501;DHT22;16450;50.288;10.966;2023-03-04T00:35:49;-2.50;92.30
29501;DHT22;16450;50.288;10.966;2023-03-04T00:38:51;-2.60;92.30
29501;DHT22;16450;50.288;10.966;2023-03-04T00:41:53;-2.60;92.50
29501;DHT22;16450;50.288;10.966;2023-03-04T00:44:55;-2.70;92.40
29501;DHT22;16450;50.288;10.966;2023-03-04T00:47:57;-2.70;92.40
29501;DHT22;16450;50.288;10.966;2023-03-04T00:50:58;-2.70;92.40
29501;DHT22;16450;50.288;10.966;2023-03-04T00:54:00;-2.70;92.40
29501;DHT22;16450;50.288;10.966;2023-03-04T00:57:02;-2.80;92.30
29501;DHT22;16450;50.288;10.966;2023-03-04T01:00:05;-2.80;92.30
29501;DHT22;16450;50.288;10.966;2023-03-04T01:03:07;-2.80;92.30
29501;DHT22;16450;50.288;10.966;2023-03-04T01:06:09;-2.80;92.30
29501;DHT22;16450;50.288;10.966;2023-03-04T01:09:11;-2.90;92.20
29501;DHT22;16450;50.288;10.966;2023-03-04T01:12:13;-2.90;92.30
29501;DHT22;16450;50.288;10.966;2023-03-04T01:15:15;-3.00;92.20
29501;DHT22;16450;50.288;10.966;2023-03-04T01:18:18;-3.00;92.30
29501;DHT22;16450;50.288;10.966;2023-03-04T01:21:19;-3.00;92.40
29501;DHT22;16450;50.288;10.966;2023-03-04T01:24:21;-3.10;92.30
29501;DHT22;16450;50.288;10.966;2023-03-04T01:27:23;-3.10;92.40
29501;DHT22;16450;50.288;10.966;2023-03-04T01:30:25;-3.10;92.40
29501;DHT22;16450;50.288;10.966;2023-03-04T01:33:27;-3.20;92.30
29501;DHT22;16450;50.288;10.966;2023-03-04T01:36:29;-3.20;92.30
29501;DHT22;16450;50.288;10.966;2023-03-04T01:39:31;-3.20;92.20
29501;DHT22;16450;50.288;10.966;2023-03-04T01:42:34;-3.20;92.20
29501;DHT22;16450;50.288;10.966;2023-03-04T01:45:36;-3.30;92.20
29501;DHT22;16450;50.288;10.966;2023-03-04T01:48:41;-3.30;92.30
29501;DHT22;16450;50.288;10.966;2023-03-04T01:51:47;-3.40;92.40
29501;DHT22;16450;50.288;10.966;2023-03-04T01:54:49;-3.40;92.40
29501;DHT22;16450;50.288;10.966;2023-03-04T01:57:52;-3.40;92.50
29501;DHT22;16450;50.288;10.966;2023-03-04T02:00:55;-3.40;92.60
29501;DHT22;16450;50.288;10.966;2023-03-04T02:03:57;-3.40;92.90
29501;DHT22;16450;50.288;10.966;2023-03-04T02:07:01;-3.40;93.10
29501;DHT22;16450;50.288;10.966;2023-03-04T02:10:03;-3.40;93.30
29501;DHT22;16450;50.288;10.966;2023-03-04T02:13:05;-3.40;93.30
29501;DHT22;16450;50.288;10.966;2023-03-04T02:16:15;-3.40;93.40
29501;DHT22;16450;50.288;10.966;2023-03-04T02:22:32;-3.30;93.80
29501;DHT22;16450;50.288;10.966;2023-03-04T02:25:46;-3.30;94.00
29501;DHT22;16450;50.288;10.966;2023-03-04T02:28:51;-3.30;94.00
29501;DHT22;16450;50.288;10.966;2023-03-04T02:31:53;-3.20;94.40
29501;DHT22;16450;50.288;10.966;2023-03-04T02:34:55;-3.20;94.70
29501;DHT22;16450;50.288;10.966;2023-03-04T02:37:57;-3.10;95.00
29501;DHT22;16450;50.288;10.966;2023-03-04T02:41:00;-3.10;95.10
29501;DHT22;16450;50.288;10.966;2023-03-04T02:44:02;-3.00;95.30
29501;DHT22;16450;50.288;10.966;2023-03-04T02:47:06;-3.00;95.40
29501;DHT22;16450;50.288;10.966;2023-03-04T02:50:09;-3.00;95.60
29501;DHT22;16450;50.288;10.966;2023-03-04T02:53:11;-2.90;95.80
29501;DHT22;16450;50.288;10.966;2023-03-04T02:56:13;-2.80;96.00
29501;DHT22;16450;50.288;10.966;2023-03-04T02:59:16;-2.70;96.20
29501;DHT22;16450;50.288;10.966;2023-03-04T03:02:18;-2.70;96.20
29501;DHT22;16450;50.288;10.966;2023-03-04T03:05:20;-2.60;96.30
29501;DHT22;16450;50.288;10.966;2023-03-04T03:08:21;-2.60;96.40
29501;DHT22;16450;50.288;10.966;2023-03-04T03:11:24;-2.50;96.50
29501;DHT22;16450;50.288;10.966;2023-03-04T03:14:27;-2.50;96.60
29501;DHT22;16450;50.288;10.966;2023-03-04T03:17:29;-2.50;96.60
29501;DHT22;16450;50.288;10.966;2023-03-04T03:20:30;-2.40;96.70
29501;DHT22;16450;50.288;10.966;2023-03-04T03:23:33;-2.40;96.70
29501;DHT22;16450;50.288;10.966;2023-03-04T03:26:35;-2.30;96.70
29501;DHT22;16450;50.288;10.966;2023-03-04T03:29:37;-2.30;96.80
29501;DHT22;16450;50.288;10.966;2023-03-04T03:32:39;-2.30;96.80
29501;DHT22;16450;50.288;10.966;2023-03-04T03:35:41;-2.20;97.20
29501;DHT22;16450;50.288;10.966;2023-03-04T03:38:43;-2.30;97.00
29501;DHT22;16450;50.288;10.966;2023-03-04T03:41:44;-2.20;97.00
29501;DHT22;16450;50.288;10.966;2023-03-04T03:44:46;-2.10;97.10
29501;DHT22;16450;50.288;10.966;2023-03-04T03:47:48;-2.10;97.10
29501;DHT22;16450;50.288;10.966;2023-03-04T03:50:50;-2.10;97.10
29501;DHT22;16450;50.288;10.966;2023-03-04T03:53:52;-2.10;97.20
29501;DHT22;16450;50.288;10.966;2023-03-04T03:56:53;-2.00;97.30
29501;DHT22;16450;50.288;10.966;2023-03-04T03:59:55;-2.00;97.30
29501;DHT22;16450;50.288;10.966;2023-03-04T04:02:59;-2.00;97.40
29501;DHT22;16450;50.288;10.966;2023-03-04T04:06:01;-2.00;97.40
29501;DHT22;16450;50.288;10.966;2023-03-04T04:09:03;-1.90;97.50
29501;DHT22;16450;50.288;10.966;2023-03-04T04:12:06;-1.90;97.50
29501;DHT22;16450;50.288;10.966;2023-03-04T04:15:11;-1.90;97.50
29501;DHT22;16450;50.288;10.966;2023-03-04T04:18:13;-1.90;97.50
29501;DHT22;16450;50.288;10.966;2023-03-04T04:21:15;-1.90;97.60
29501;DHT22;16450;50.288;10.966;2023-03-04T04:24:17;-1.90;97.60
29501;DHT22;16450;50.288;10.966;2023-03-04T04:27:19;-1.90;97.60
29501;DHT22;16450;50.288;10.966;2023-03-04T04:30:21;-1.80;97.70
29501;DHT22;16450;50.288;10.966;2023-03-04T04:33:23;-1.80;97.80
29501;DHT22;16450;50.288;10.966;2023-03-04T04:36:25;-1.80;97.80
29501;DHT22;16450;50.288;10.966;2023-03-04T04:39:27;-1.80;97.80
29501;DHT22;16450;50.288;10.966;2023-03-04T04:42:29;-1.80;97.90
29501;DHT22;16450;50.288;10.966;2023-03-04T04:45:31;-1.80;97.90
29501;DHT22;16450;50.288;10.966;2023-03-04T04:48:33;-1.80;97.90
29501;DHT22;16450;50.288;10.966;2023-03-04T04:51:37;-1.80;98.00
29501;DHT22;16450;50.288;10.966;2023-03-04T04:54:39;-1.70;98.00
29501;DHT22;16450;50.288;10.966;2023-03-04T04:57:41;-1.70;98.10
29501;DHT22;16450;50.288;10.966;2023-03-04T05:00:43;-1.70;98.20
29501;DHT22;16450;50.288;10.966;2023-03-04T05:03:45;-1.70;98.20
29501;DHT22;16450;50.288;10.966;2023-03-04T05:06:47;-1.60;98.30
29501;DHT22;16450;50.288;10.966;2023-03-04T05:09:52;-1.70;98.20
29501;DHT22;16450;50.288;10.966;2023-03-04T05:12:54;-1.60;98.30
29501;DHT22;16450;50.288;10.966;2023-03-04T05:15:56;-1.60;98.20
29501;DHT22;16450;50.288;10.966;2023-03-04T05:18:58;-1.60;98.30
29501;DHT22;16450;50.288;10.966;2023-03-04T05:22:00;-1.60;98.30
29501;DHT22;16450;50.288;10.966;2023-03-04T05:25:02;-1.60;98.40
29501;DHT22;16450;50.288;10.966;2023-03-04T05:28:05;-1.60;98.40
29501;DHT22;16450;50.288;10.966;2023-03-04T05:31:09;-1.60;98.50
29501;DHT22;16450;50.288;10.966;2023-03-04T05:34:12;-1.60;98.50
29501;DHT22;16450;50.288;10.966;2023-03-04T05:37:14;-1.60;98.50
29501;DHT22;16450;50.288;10.966;2023-03-04T05:40:15;-1.50;98.60
29501;DHT22;16450;50.288;10.966;2023-03-04T05:43:17;-1.50;98.60
29501;DHT22;16450;50.288;10.966;2023-03-04T05:46:19;-1.50;98.60
29501;DHT22;16450;50.288;10.966;2023-03-04T05:49:26;-1.50;98.60
29501;DHT22;16450;50.288;10.966;2023-03-04T05:52:28;-1.50;98.60
29501;DHT22;16450;50.288;10.966;2023-03-04T05:55:30;-1.50;98.70
29501;DHT22;16450;50.288;10.966;2023-03-04T05:58:32;-1.50;98.70
29501;DHT22;16450;50.288;10.966;2023-03-04T06:01:34;-1.40;98.80
29501;DHT22;16450;50.288;10.966;2023-03-04T06:04:36;-1.40;98.80
29501;DHT22;16450;50.288;10.966;2023-03-04T06:07:38;-1.40;98.80
29501;DHT22;16450;50.288;10.966;2023-03-04T06:10:41;-1.40;98.80
29501;DHT22;16450;50.288;10.966;2023-03-04T06:13:43;-1.40;98.80
29501;DHT22;16450;50.288;10.966;2023-03-04T06:16:45;-1.30;98.90
29501;DHT22;16450;50.288;10.966;2023-03-04T06:19:47;-1.30;98.90
29501;DHT22;16450;50.288;10.966;2023-03-04T06:22:49;-1.30;98.90
29501;DHT22;16450;50.288;10.966;2023-03-04T06:25:54;-1.30;98.90
29501;DHT22;16450;50.288;10.966;2023-03-04T06:28:55;-1.30;99.00
29501;DHT22;16450;50.288;10.966;2023-03-04T06:31:58;-1.20;99.00
29501;DHT22;16450;50.288;10.966;2023-03-04T06:34:59;-1.20;99.10
29501;DHT22;16450;50.288;10.966;2023-03-04T06:38:01;-1.20;99.10
29501;DHT22;16450;50.288;10.966;2023-03-04T06:41:10;-1.10;99.10
29501;DHT22;16450;50.288;10.966;2023-03-04T06:44:12;-1.10;99.00
29501;DHT22;16450;50.288;10.966;2023-03-04T06:47:14;-1.10;99.10
29501;DHT22;16450;50.288;10.966;2023-03-04T06:50:17;-1.10;99.20
29501;DHT22;16450;50.288;10.966;2023-03-04T06:53:18;-1.00;99.30
29501;DHT22;16450;50.288;10.966;2023-03-04T06:56:20;-1.00;99.20
29501;DHT22;16450;50.288;10.966;2023-03-04T06:59:22;-1.00;99.20
29501;DHT22;16450;50.288;10.966;2023-03-04T07:02:24;-0.90;99.30
29501;DHT22;16450;50.288;10.966;2023-03-04T07:05:26;-0.90;99.30
29501;DHT22;16450;50.288;10.966;2023-03-04T07:08:28;-0.90;99.30
29501;DHT22;16450;50.288;10.966;2023-03-04T07:11:30;-0.90;99.30
29501;DHT22;16450;50.288;10.966;2023-03-04T07:14:32;-0.80;99.40
29501;DHT22;16450;50.288;10.966;2023-03-04T07:17:34;-0.80;99.40
29501;DHT22;16450;50.288;10.966;2023-03-04T07:20:36;-0.80;99.40
29501;DHT22;16450;50.288;10.966;2023-03-04T07:23:38;-0.70;99.50
29501;DHT22;16450;50.288;10.966;2023-03-04T07:26:40;-0.70;99.50
29501;DHT22;16450;50.288;10.966;2023-03-04T07:29:42;-0.70;99.50
29501;DHT22;16450;50.288;10.966;2023-03-04T07:32:44;-0.60;99.50
29501;DHT22;16450;50.288;10.966;2023-03-04T07:35:46;-0.60;99.50
29501;DHT22;16450;50.288;10.966;2023-03-04T07:38:49;-0.60;99.50
29501;DHT22;16450;50.288;10.966;2023-03-04T07:41:51;-0.50;99.50
29501;DHT22;16450;50.288;10.966;2023-03-04T07:44:53;-0.50;99.50
29501;DHT22;16450;50.288;10.966;2023-03-04T07:47:57;-0.40;99.60
29501;DHT22;16450;50.288;10.966;2023-03-04T07:54:08;-0.40;99.40
29501;DHT22;16450;50.288;10.966;2023-03-04T07:57:10;-0.30;99.60
29501;DHT22;16450;50.288;10.966;2023-03-04T08:00:15;-0.30;99.60
29501;DHT22;16450;50.288;10.966;2023-03-04T08:03:17;-0.30;99.50
29501;DHT22;16450;50.288;10.966;2023-03-04T08:06:20;-0.20;99.60
29501;DHT22;16450;50.288;10.966;2023-03-04T08:09:22;-0.20;99.60
29501;DHT22;16450;50.288;10.966;2023-03-04T08:12:24;-0.10;99.60
29501;DHT22;16450;50.288;10.966;2023-03-04T08:15:26;-0.10;99.60
29501;DHT22;16450;50.288;10.966;2023-03-04T08:18:28;0.00;99.60
29501;DHT22;16450;50.288;10.966;2023-03-04T08:21:30;0.00;99.60
29501;DHT22;16450;50.288;10.966;2023-03-04T08:24:32;0.10;99.60
29501;DHT22;16450;50.288;10.966;2023-03-04T08:27:34;0.10;99.60
29501;DHT22;16450;50.288;10.966;2023-03-04T08:30:38;0.20;99.70
29501;DHT22;16450;50.288;10.966;2023-03-04T08:33:41;0.20;99.60
29501;DHT22;16450;50.288;10.966;2023-03-04T08:36:43;0.30;99.70
29501;DHT22;16450;50.288;10.966;2023-03-04T08:39:44;0.30;99.70
29501;DHT22;16450;50.288;10.966;2023-03-04T08:42:46;0.30;99.70
29501;DHT22;16450;50.288;10.966;2023-03-04T08:45:48;0.40;99.60
29501;DHT22;16450;50.288;10.966;2023-03-04T08:48:50;0.50;99.70
29501;DHT22;16450;50.288;10.966;2023-03-04T08:51:52;0.50;99.70
29501;DHT22;16450;50.288;10.966;2023-03-04T08:54:55;0.50;99.60
29501;DHT22;16450;50.288;10.966;2023-03-04T08:57:57;0.60;99.60
29501;DHT22;16450;50.288;10.966;2023-03-04T09:01:00;0.60;99.50
29501;DHT22;16450;50.288;10.966;2023-03-04T09:04:02;0.70;99.50
29501;DHT22;16450;50.288;10.966;2023-03-04T09:07:05;0.70;99.50
29501;DHT22;16450;50.288;10.966;2023-03-04T09:10:08;0.80;99.60
29501;DHT22;16450;50.288;10.966;2023-03-04T09:13:11;0.80;99.50
29501;DHT22;16450;50.288;10.966;2023-03-04T09:16:13;0.80;99.50
29501;DHT22;16450;50.288;10.966;2023-03-04T09:19:16;0.90;99.60
29501;DHT22;16450;50.288;10.966;2023-03-04T09:22:18;0.90;99.60
29501;DHT22;16450;50.288;10.966;2023-03-04T09:25:20;1.00;99.70
29501;DHT22;16450;50.288;10.966;2023-03-04T09:28:22;1.00;99.70
29501;DHT22;16450;50.288;10.966;2023-03-04T09:31:25;1.10;99.80
29501;DHT22;16450;50.288;10.966;2023-03-04T09:34:27;1.20;99.70
29501;DHT22;16450;50.288;10.966;2023-03-04T09:37:28;1.20;99.70
29501;DHT22;16450;50.288;10.966;2023-03-04T09:40:45;1.30;99.80
29501;DHT22;16450;50.288;10.966;2023-03-04T09:43:48;1.40;99.40
29501;DHT22;16450;50.288;10.966;2023-03-04T09:46:51;1.40;99.80
29501;DHT22;16450;50.288;10.966;2023-03-04T09:49:57;1.50;99.80
29501;DHT22;16450;50.288;10.966;2023-03-04T09:53:20;1.60;99.70
29501;DHT22;16450;50.288;10.966;2023-03-04T09:56:25;1.60;99.30
29501;DHT22;16450;50.288;10.966;2023-03-04T09:59:36;1.60;99.70
29501;DHT22;16450;50.288;10.966;2023-03-04T10:06:13;1.70;99.40
29501;DHT22;16450;50.288;10.966;2023-03-04T10:09:27;1.80;99.60
29501;DHT22;16450;50.288;10.966;2023-03-04T10:12:33;1.80;99.60
29501;DHT22;16450;50.288;10.966;2023-03-04T10:15:43;1.90;99.70
29501;DHT22;16450;50.288;10.966;2023-03-04T10:19:01;1.90;99.80
29501;DHT22;16450;50.288;10.966;2023-03-04T10:22:19;2.00;99.40
29501;DHT22;16450;50.288;10.966;2023-03-04T10:25:29;2.10;99.50
29501;DHT22;16450;50.288;10.966;2023-03-04T10:28:34;2.10;99.60
29501;DHT22;16450;50.288;10.966;2023-03-04T10:31:36;2.10;99.80
29501;DHT22;16450;50.288;10.966;2023-03-04T10:34:38;2.20;99.90
29501;DHT22;16450;50.288;10.966;2023-03-04T10:37:49;2.20;99.90
29501;DHT22;16450;50.288;10.966;2023-03-04T10:40:51;2.30;99.50
29501;DHT22;16450;50.288;10.966;2023-03-04T10:47:09;2.40;99.70
29501;DHT22;16450;50.288;10.966;2023-03-04T10:50:21;2.50;99.80
29501;DHT22;16450;50.288;10.966;2023-03-04T10:53:32;2.50;99.60
29501;DHT22;16450;50.288;10.966;2023-03-04T10:56:40;2.60;99.60
29501;DHT22;16450;50.288;10.966;2023-03-04T10:59:48;2.70;99.90
29501;DHT22;16450;50.288;10.966;2023-03-04T11:06:30;2.80;99.10
29501;DHT22;16450;50.288;10.966;2023-03-04T11:09:36;2.80;99.90
29501;DHT22;16450;50.288;10.966;2023-03-04T11:12:38;3.00;99.90
29501;DHT22;16450;50.288;10.966;2023-03-04T11:16:21;3.00;99.90
29501;DHT22;16450;50.288;10.966;2023-03-04T11:19:31;3.10;98.80
29501;DHT22;16450;50.288;10.966;2023-03-04T11:22:36;3.20;99.40
29501;DHT22;16450;50.288;10.966;2023-03-04T11:25:47;3.20;99.80
29501;DHT22;16450;50.288;10.966;2023-03-04T11:28:57;3.30;99.20
29501;DHT22;16450;50.288;10.966;2023-03-04T11:35:22;3.40;99.30
29501;DHT22;16450;50.288;10.966;2023-03-04T11:38:35;3.40;99.30
29501;DHT22;16450;50.288;10.966;2023-03-04T11:41:45;3.50;98.70
29501;DHT22;16450;50.288;10.966;2023-03-04T11:44:48;3.50;99.20
29501;DHT22;16450;50.288;10.966;2023-03-04T11:48:03;3.50;99.50
29501;DHT22;16450;50.288;10.966;2023-03-04T11:51:18;3.50;98.90
29501;DHT22;16450;50.288;10.966;2023-03-04T12:20:28;3.80;99.00
29501;DHT22;16450;50.288;10.966;2023-03-04T12:40:46;4.10;98.40
29501;DHT22;16450;50.288;10.966;2023-03-04T12:47:16;4.10;99.50
29501;DHT22;16450;50.288;10.966;2023-03-04T12:57:00;4.20;98.70
29501;DHT22;16450;50.288;10.966;2023-03-04T13:06:28;4.20;98.50
29501;DHT22;16450;50.288;10.966;2023-03-04T13:09:39;4.30;99.20
29501;DHT22;16450;50.288;10.966;2023-03-04T13:12:52;4.30;98.90
29501;DHT22;16450;50.288;10.966;2023-03-04T13:16:04;4.30;98.30
29501;DHT22;16450;50.288;10.966;2023-03-04T13:19:41;4.30;98.30
29501;DHT22;16450;50.288;10.966;2023-03-04T13:32:44;4.30;98.00
29501;DHT22;16450;50.288;10.966;2023-03-04T13:39:24;4.40;99.10
29501;DHT22;16450;50.288;10.966;2023-03-04T13:42:38;4.40;98.00
29501;DHT22;16450;50.288;10.966;2023-03-04T13:45:40;4.50;98.20
29501;DHT22;16450;50.288;10.966;2023-03-04T13:51:51;4.40;98.80
29501;DHT22;16450;50.288;10.966;2023-03-04T13:58:31;4.40;97.50
29501;DHT22;16450;50.288;10.966;2023-03-04T14:04:43;4.40;98.40
29501;DHT22;16450;50.288;10.966;2023-03-04T14:07:45;4.40;98.60
29501;DHT22;16450;50.288;10.966;2023-03-04T14:10:54;4.40;99.00
29501;DHT22;16450;50.288;10.966;2023-03-04T14:13:58;4.40;98.20
29501;DHT22;16450;50.288;10.966;2023-03-04T14:17:03;4.30;98.60
29501;DHT22;16450;50.288;10.966;2023-03-04T14:20:29;4.40;98.60
29501;DHT22;16450;50.288;10.966;2023-03-04T14:23:33;4.30;97.70
29501;DHT22;16450;50.288;10.966;2023-03-04T14:26:36;4.30;98.60
29501;DHT22;16450;50.288;10.966;2023-03-04T14:29:38;4.30;98.90
29501;DHT22;16450;50.288;10.966;2023-03-04T14:32:42;4.30;98.80
29501;DHT22;16450;50.288;10.966;2023-03-04T14:35:52;4.30;98.80
29501;DHT22;16450;50.288;10.966;2023-03-04T14:39:00;4.30;98.40
29501;DHT22;16450;50.288;10.966;2023-03-04T14:42:09;4.30;98.70
29501;DHT22;16450;50.288;10.966;2023-03-04T14:45:14;4.30;98.40
29501;DHT22;16450;50.288;10.966;2023-03-04T14:48:21;4.30;98.80
29501;DHT22;16450;50.288;10.966;2023-03-04T14:51:39;4.30;98.60
29501;DHT22;16450;50.288;10.966;2023-03-04T14:58:18;4.30;98.20
29501;DHT22;16450;50.288;10.966;2023-03-04T15:01:27;4.30;98.80
29501;DHT22;16450;50.288;10.966;2023-03-04T15:04:29;4.30;99.00
29501;DHT22;16450;50.288;10.966;2023-03-04T15:07:36;4.30;99.10
29501;DHT22;16450;50.288;10.966;2023-03-04T15:10:38;4.30;98.70
29501;DHT22;16450;50.288;10.966;2023-03-04T15:13:43;4.30;99.10
29501;DHT22;16450;50.288;10.966;2023-03-04T15:16:54;4.30;99.00
29501;DHT22;16450;50.288;10.966;2023-03-04T15:20:24;4.40;98.70
29501;DHT22;16450;50.288;10.966;2023-03-04T15:23:28;4.30;98.10
29501;DHT22;16450;50.288;10.966;2023-03-04T15:26:31;4.40;99.10
29501;DHT22;16450;50.288;10.966;2023-03-04T15:29:34;4.40;99.00
29501;DHT22;16450;50.288;10.966;2023-03-04T15:32:36;4.30;99.20
29501;DHT22;16450;50.288;10.966;2023-03-04T15:35:39;4.30;99.20
29501;DHT22;16450;50.288;10.966;2023-03-04T15:38:44;4.30;99.10
29501;DHT22;16450;50.288;10.966;2023-03-04T15:41:48;4.30;99.00
29501;DHT22;16450;50.288;10.966;2023-03-04T15:44:51;4.30;99.10
29501;DHT22;16450;50.288;10.966;2023-03-04T15:47:53;4.30;99.20
29501;DHT22;16450;50.288;10.966;2023-03-04T15:50:57;4.30;99.20
29501;DHT22;16450;50.288;10.966;2023-03-04T15:54:00;4.30;99.00
29501;DHT22;16450;50.288;10.966;2023-03-04T15:57:04;4.30;99.20
29501;DHT22;16450;50.288;10.966;2023-03-04T16:00:10;4.30;99.00
29501;DHT22;16450;50.288;10.966;2023-03-04T16:03:15;4.30;99.00
29501;DHT22;16450;50.288;10.966;2023-03-04T16:06:18;4.30;99.00
29501;DHT22;16450;50.288;10.966;2023-03-04T16:09:21;4.30;99.10
29501;DHT22;16450;50.288;10.966;2023-03-04T16:12:25;4.30;99.20
29501;DHT22;16450;50.288;10.966;2023-03-04T16:15:28;4.20;98.90
29501;DHT22;16450;50.288;10.966;2023-03-04T16:18:31;4.30;99.00
29501;DHT22;16450;50.288;10.966;2023-03-04T16:21:33;4.30;99.10
29501;DHT22;16450;50.288;10.966;2023-03-04T16:24:34;4.20;99.00
29501;DHT22;16450;50.288;10.966;2023-03-04T16:27:36;4.20;99.00
29501;DHT22;16450;50.288;10.966;2023-03-04T16:30:39;4.20;99.00
29501;DHT22;16450;50.288;10.966;2023-03-04T16:33:41;4.20;99.00
29501;DHT22;16450;50.288;10.966;2023-03-04T16:36:43;4.20;99.00
29501;DHT22;16450;50.288;10.966;2023-03-04T16:39:46;4.20;99.00
29501;DHT22;16450;50.288;10.966;2023-03-04T16:42:49;4.20;98.90
29501;DHT22;16450;50.288;10.966;2023-03-04T16:45:52;4.20;99.00
29501;DHT22;16450;50.288;10.966;2023-03-04T16:48:54;4.20;99.00
29501;DHT22;16450;50.288;10.966;2023-03-04T16:51:56;4.20;99.00
29501;DHT22;16450;50.288;10.966;2023-03-04T16:54:58;4.10;99.00
29501;DHT22;16450;50.288;10.966;2023-03-04T16:58:01;4.20;99.00
29501;DHT22;16450;50.288;10.966;2023-03-04T17:01:04;4.10;99.10
29501;DHT22;16450;50.288;10.966;2023-03-04T17:04:07;4.10;99.00
29501;DHT22;16450;50.288;10.966;2023-03-04T17:07:09;4.10;99.00
29501;DHT22;16450;50.288;10.966;2023-03-04T17:10:12;4.10;98.90
29501;DHT22;16450;50.288;10.966;2023-03-04T17:13:15;4.10;98.90
29501;DHT22;16450;50.288;10.966;2023-03-04T17:16:17;4.10;99.00
29501;DHT22;16450;50.288;10.966;2023-03-04T17:19:19;4.00;98.90
29501;DHT22;16450;50.288;10.966;2023-03-04T17:22:22;4.00;99.10
29501;DHT22;16450;50.288;10.966;2023-03-04T17:25:24;4.00;98.90
29501;DHT22;16450;50.288;10.966;2023-03-04T17:28:26;4.00;99.00
29501;DHT22;16450;50.288;10.966;2023-03-04T17:31:28;4.00;99.00
29501;DHT22;16450;50.288;10.966;2023-03-04T17:34:30;4.00;99.00
29501;DHT22;16450;50.288;10.966;2023-03-04T17:37:36;3.90;98.90
29501;DHT22;16450;50.288;10.966;2023-03-04T17:40:42;3.90;98.80
29501;DHT22;16450;50.288;10.966;2023-03-04T17:43:48;4.00;98.90
29501;DHT22;16450;50.288;10.966;2023-03-04T17:46:51;4.00;98.50
29501;DHT22;16450;50.288;10.966;2023-03-04T17:49:52;3.90;98.90
29501;DHT22;16450;50.288;10.966;2023-03-04T17:52:54;4.00;98.90
29501;DHT22;16450;50.288;10.966;2023-03-04T17:56:01;3.90;98.80
29501;DHT22;16450;50.288;10.966;2023-03-04T17:59:06;3.90;98.70
29501;DHT22;16450;50.288;10.966;2023-03-04T18:02:13;3.90;98.70
29501;DHT22;16450;50.288;10.966;2023-03-04T18:05:15;3.90;98.50
29501;DHT22;16450;50.288;10.966;2023-03-04T18:08:17;3.90;98.80
29501;DHT22;16450;50.288;10.966;2023-03-04T18:11:21;3.90;98.80
29501;DHT22;16450;50.288;10.966;2023-03-04T18:14:23;3.90;98.60
29501;DHT22;16450;50.288;10.966;2023-03-04T18:17:25;3.90;98.80
29501;DHT22;16450;50.288;10.966;2023-03-04T18:20:27;3.90;98.80
29501;DHT22;16450;50.288;10.966;2023-03-04T18:23:29;3.90;98.80
29501;DHT22;16450;50.288;10.966;2023-03-04T18:26:33;3.80;98.70
29501;DHT22;16450;50.288;10.966;2023-03-04T18:29:35;3.80;98.80
29501;DHT22;16450;50.288;10.966;2023-03-04T18:32:37;3.80;98.80
29501;DHT22;16450;50.288;10.966;2023-03-04T18:35:57;3.80;98.80
29501;DHT22;16450;50.288;10.966;2023-03-04T18:38:59;3.80;98.60
29501;DHT22;16450;50.288;10.966;2023-03-04T18:42:03;3.80;98.90
29501;DHT22;16450;50.288;10.966;2023-03-04T18:45:05;3.80;99.00
29501;DHT22;16450;50.288;10.966;2023-03-04T18:48:07;3.80;99.00
29501;DHT22;16450;50.288;10.966;2023-03-04T18:51:09;3.80;99.00
29501;DHT22;16450;50.288;10.966;2023-03-04T18:54:11;3.80;99.00
29501;DHT22;16450;50.288;10.966;2023-03-04T18:57:13;3.80;99.00
29501;DHT22;16450;50.288;10.966;2023-03-04T19:00:21;3.90;99.10
29501;DHT22;16450;50.288;10.966;2023-03-04T19:03:24;3.70;98.60
29501;DHT22;16450;50.288;10.966;2023-03-04T19:06:26;3.70;98.90
29501;DHT22;16450;50.288;10.966;2023-03-04T19:09:28;3.70;98.90
29501;DHT22;16450;50.288;10.966;2023-03-04T19:12:30;3.70;98.90
29501;DHT22;16450;50.288;10.966;2023-03-04T19:15:31;3.70;98.90
29501;DHT22;16450;50.288;10.966;2023-03-04T19:18:33;3.70;98.90
29501;DHT22;16450;50.288;10.966;2023-03-04T19:21:36;3.60;98.90
29501;DHT22;16450;50.288;10.966;2023-03-04T19:24:41;3.60;98.90
29501;DHT22;16450;50.288;10.966;2023-03-04T19:27:42;3.60;98.90
29501;DHT22;16450;50.288;10.966;2023-03-04T19:30:44;3.60;98.90
29501;DHT22;16450;50.288;10.966;2023-03-04T19:33:46;3.60;99.00
29501;DHT22;16450;50.288;10.966;2023-03-04T19:36:48;3.60;99.00
29501;DHT22;16450;50.288;10.966;2023-03-04T19:39:50;3.60;99.00
29501;DHT22;16450;50.288;10.966;2023-03-04T19:42:54;3.50;99.10
29501;DHT22;16450;50.288;10.966;2023-03-04T19:45:57;3.50;99.00
29501;DHT22;16450;50.288;10.966;2023-03-04T19:49:01;3.50;99.00
29501;DHT22;16450;50.288;10.966;2023-03-04T19:52:04;3.50;99.00
29501;DHT22;16450;50.288;10.966;2023-03-04T19:55:06;3.50;99.10
29501;DHT22;16450;50.288;10.966;2023-03-04T19:58:07;3.50;99.10
29501;DHT22;16450;50.288;10.966;2023-03-04T20:01:23;3.50;99.20
29501;DHT22;16450;50.288;10.966;2023-03-04T20:04:28;3.50;98.70
29501;DHT22;16450;50.288;10.966;2023-03-04T20:07:31;3.50;99.20
29501;DHT22;16450;50.288;10.966;2023-03-04T20:10:34;3.50;99.20
29501;DHT22;16450;50.288;10.966;2023-03-04T20:13:37;3.50;99.10
29501;DHT22;16450;50.288;10.966;2023-03-04T20:16:39;3.50;99.20
29501;DHT22;16450;50.288;10.966;2023-03-04T20:19:41;3.40;99.20
29501;DHT22;16450;50.288;10.966;2023-03-04T20:22:44;3.40;99.20
29501;DHT22;16450;50.288;10.966;2023-03-04T20:25:46;3.40;99.20
29501;DHT22;16450;50.288;10.966;2023-03-04T20:28:49;3.40;99.20
29501;DHT22;16450;50.288;10.966;2023-03-04T20:31:51;3.40;99.20
29501;DHT22;16450;50.288;10.966;2023-03-04T20:34:53;3.30;99.40
29501;DHT22;16450;50.288;10.966;2023-03-04T20:37:57;3.40;99.20
29501;DHT22;16450;50.288;10.966;2023-03-04T20:40:59;3.30;99.10
29501;DHT22;16450;50.288;10.966;2023-03-04T20:44:01;3.40;99.20
29501;DHT22;16450;50.288;10.966;2023-03-04T20:47:04;3.30;99.20
29501;DHT22;16450;50.288;10.966;2023-03-04T20:50:07;3.30;99.20
29501;DHT22;16450;50.288;10.966;2023-03-04T20:53:09;3.30;99.20
29501;DHT22;16450;50.288;10.966;2023-03-04T20:56:12;3.30;99.20
29501;DHT22;16450;50.288;10.966;2023-03-04T20:59:14;3.30;99.20
29501;DHT22;16450;50.288;10.966;2023-03-04T21:02:16;3.30;99.20